createdAt,value
2017-04-01T00:00:07.721Z,95.12
2017-04-01T00:00:21.809Z,95.31
2017-04-01T00:00:36.008Z,96.66
2017-04-01T00:00:50.131Z,96.47
2017-04-01T00:01:04.326Z,97.14
2017-04-01T00:01:18.490Z,96.27
2017-04-01T00:01:32.714Z,96.47
2017-04-01T00:01:46.796Z,95.98
2017-04-01T00:02:00.894Z,96.56
2017-04-01T00:02:15.023Z,96.47
2017-04-01T00:02:29.159Z,96.47
2017-04-01T00:02:43.301Z,96.75
2017-04-01T00:02:57.473Z,96.47
2017-04-01T00:03:11.597Z,96.37
2017-04-01T00:03:25.728Z,96.75
2017-04-01T00:03:39.916Z,96.47
2017-04-01T00:03:54.163Z,96.84
2017-04-01T00:04:08.304Z,97.04
2017-04-01T00:04:22.391Z,96.84
2017-04-01T00:04:36.773Z,96.84
2017-04-01T00:04:50.917Z,97.04
2017-04-01T00:05:05.098Z,97.14
2017-04-01T00:05:19.232Z,96.84
2017-04-01T00:05:33.428Z,96.84
2017-04-01T00:05:47.600Z,96.94
2017-04-01T00:06:01.779Z,96.75
2017-04-01T00:06:15.914Z,97.42
2017-04-01T00:06:30.084Z,97.61
2017-04-01T00:06:44.456Z,97.52
2017-04-01T00:06:58.559Z,97.71
2017-04-01T00:07:12.749Z,97.61
2017-04-01T00:07:26.942Z,97.71
2017-04-01T00:07:41.098Z,97.42
2017-04-01T00:07:55.228Z,97.52
2017-04-01T00:08:09.399Z,97.71
2017-04-01T00:08:23.538Z,98.38
2017-04-01T00:08:37.695Z,97.9
2017-04-01T00:08:51.818Z,97.8
2017-04-01T00:09:05.949Z,97.9
2017-04-01T00:09:20.115Z,97.9
2017-04-01T00:09:34.253Z,97.8
2017-04-01T00:09:48.342Z,98.1
2017-04-01T00:10:02.465Z,97.8
2017-04-01T00:10:16.682Z,98
2017-04-01T00:10:30.787Z,98.57
2017-04-01T00:10:44.976Z,98.38
2017-04-01T00:10:59.113Z,98.67
2017-04-01T00:11:13.297Z,98.47
2017-04-01T00:11:27.495Z,98.38
2017-04-01T00:11:41.878Z,98.57
2017-04-01T00:11:56.040Z,98.38
2017-04-01T00:12:10.211Z,98.67
2017-04-01T00:12:24.390Z,98.76
2017-04-01T00:12:38.500Z,98.47
2017-04-01T00:12:52.699Z,98.96
2017-04-01T00:13:06.856Z,99.05
2017-04-01T00:13:21.021Z,99.34
2017-04-01T00:13:35.244Z,99.15
2017-04-01T00:13:49.418Z,99.24
2017-04-01T00:14:03.559Z,98.86
2017-04-01T00:14:17.727Z,98.96
2017-04-01T00:14:31.937Z,98.86
2017-04-01T00:14:46.051Z,98.76
2017-04-01T00:15:00.212Z,99.15
2017-04-01T00:15:14.364Z,99.15
2017-04-01T00:15:28.539Z,98.76
2017-04-01T00:15:42.658Z,98.96
2017-04-01T00:15:56.814Z,98.96
2017-04-01T00:16:10.985Z,99.05
2017-04-01T00:16:25.156Z,98.47
2017-04-01T00:16:39.296Z,99.05
2017-04-01T00:16:53.526Z,99.15
2017-04-01T00:17:07.639Z,99.15
2017-04-01T00:17:21.814Z,99.05
2017-04-01T00:17:36.580Z,99.24
2017-04-01T00:17:50.739Z,98.67
2017-04-01T00:18:04.864Z,98.96
2017-04-01T00:18:19.018Z,98.67
2017-04-01T00:18:33.215Z,98.47
2017-04-01T00:18:47.350Z,98.47
2017-04-01T00:19:01.468Z,98.57
2017-04-01T00:19:15.558Z,98.76
2017-04-01T00:19:29.662Z,98.86
2017-04-01T00:19:44.012Z,98.96
2017-04-01T00:19:58.195Z,98.96
2017-04-01T00:20:12.272Z,99.05
2017-04-01T00:20:26.398Z,98.38
2017-04-01T00:20:40.516Z,99.05
2017-04-01T00:20:54.616Z,98.96
2017-04-01T00:21:08.733Z,98.67
2017-04-01T00:21:22.812Z,98.96
2017-04-01T00:21:37.020Z,99.24
2017-04-01T00:21:51.188Z,98.86
2017-04-01T00:22:05.384Z,98.96
2017-04-01T00:22:19.569Z,98.86
2017-04-01T00:22:33.734Z,98.76
2017-04-01T00:22:47.950Z,99.05
2017-04-01T00:23:02.102Z,98.86
2017-04-01T00:23:16.260Z,99.05
2017-04-01T00:23:30.450Z,98.86
2017-04-01T00:23:44.590Z,99.15
2017-04-01T00:23:58.725Z,98.57
2017-04-01T00:24:12.858Z,98.96
2017-04-01T00:24:27.018Z,98.76
2017-04-01T00:24:41.193Z,98.76
2017-04-01T00:24:55.359Z,98.96
2017-04-01T00:25:09.487Z,98.76
2017-04-01T00:25:23.623Z,98.86
2017-04-01T00:25:37.791Z,98.67
2017-04-01T00:25:52.054Z,98.76
2017-04-01T00:26:06.146Z,98.57
2017-04-01T00:26:20.296Z,98.57
2017-04-01T00:26:34.424Z,98.67
2017-04-01T00:26:48.562Z,98.67
2017-04-01T00:27:02.688Z,98.67
2017-04-01T00:27:16.857Z,98.67
2017-04-01T00:27:31.024Z,98.47
2017-04-01T00:27:45.236Z,98.57
2017-04-01T00:27:59.403Z,98.96
2017-04-01T00:28:13.550Z,99.05
2017-04-01T00:28:27.650Z,98.86
2017-04-01T00:28:41.846Z,98.76
2017-04-01T00:28:55.976Z,99.15
2017-04-01T00:29:10.199Z,99.05
2017-04-01T00:29:24.460Z,99.05
2017-04-01T00:29:38.630Z,98.96
2017-04-01T00:29:52.806Z,99.05
2017-04-01T00:30:06.983Z,98.76
2017-04-01T00:30:21.126Z,98.76
2017-04-01T00:30:35.292Z,98.57
2017-04-01T00:30:49.448Z,98.38
2017-04-01T00:31:03.628Z,98.67
2017-04-01T00:31:17.762Z,98.86
2017-04-01T00:31:31.939Z,99.05
2017-04-01T00:31:46.139Z,98.86
2017-04-01T00:32:00.325Z,98.28
2017-04-01T00:32:14.460Z,99.05
2017-04-01T00:32:28.581Z,99.15
2017-04-01T00:32:42.761Z,99.05
2017-04-01T00:32:56.940Z,99.05
2017-04-01T00:33:11.142Z,98.96
2017-04-01T00:33:25.233Z,98.57
2017-04-01T00:33:39.362Z,99.15
2017-04-01T00:33:53.493Z,98.86
2017-04-01T00:34:07.684Z,99.05
2017-04-01T00:34:21.830Z,98.96
2017-04-01T00:34:35.999Z,98.38
2017-04-01T00:34:50.378Z,98.47
2017-04-01T00:35:04.544Z,98.67
2017-04-01T00:35:18.716Z,98.76
2017-04-01T00:35:32.903Z,98.67
2017-04-01T00:35:47.063Z,98.47
2017-04-01T00:36:01.222Z,98.76
2017-04-01T00:36:15.433Z,98.86
2017-04-01T00:36:29.606Z,98.67
2017-04-01T00:36:43.831Z,99.05
2017-04-01T00:36:58.070Z,99.15
2017-04-01T00:37:14.498Z,98.86
2017-04-01T00:37:31.288Z,98.76
2017-04-01T00:37:45.503Z,98.57
2017-04-01T00:37:59.867Z,99.05
2017-04-01T00:38:14.742Z,99.15
2017-04-01T00:38:28.967Z,98.86
2017-04-01T00:38:43.174Z,98.86
2017-04-01T00:38:57.596Z,98.47
2017-04-01T00:39:11.720Z,98.47
2017-04-01T00:39:25.881Z,99.05
2017-04-01T00:39:40.059Z,99.15
2017-04-01T00:39:54.538Z,98.96
2017-04-01T00:40:10.523Z,98.47
2017-04-01T00:40:24.832Z,98.76
2017-04-01T00:40:39.151Z,98.86
2017-04-01T00:40:53.541Z,98.76
2017-04-01T00:41:08.089Z,99.15
2017-04-01T00:41:22.264Z,98.67
2017-04-01T00:41:36.482Z,98.86
2017-04-01T00:41:50.649Z,99.24
2017-04-01T00:42:08.383Z,99.15
2017-04-01T00:42:22.566Z,98.86
2017-04-01T00:42:36.761Z,98.86
2017-04-01T00:42:51.026Z,99.24
2017-04-01T00:43:05.210Z,98.86
2017-04-01T00:43:19.686Z,99.05
2017-04-01T00:43:33.857Z,98.96
2017-04-01T00:43:51.364Z,99.24
2017-04-01T00:44:06.368Z,99.24
2017-04-01T00:44:20.563Z,99.15
2017-04-01T00:44:35.658Z,99.24
2017-04-01T00:44:49.811Z,99.15
2017-04-01T00:45:04.006Z,99.15
2017-04-01T00:45:18.236Z,98.96
2017-04-01T00:45:32.482Z,99.24
2017-04-01T00:45:46.646Z,98.86
2017-04-01T00:46:01.010Z,99.24
2017-04-01T00:46:15.096Z,99.05
2017-04-01T00:46:29.241Z,99.43
2017-04-01T00:46:43.419Z,99.15
2017-04-01T00:46:57.739Z,99.24
2017-04-01T00:47:11.947Z,99.24
2017-04-01T00:47:26.536Z,99.34
2017-04-01T00:47:40.755Z,99.05
2017-04-01T00:47:54.997Z,99.43
2017-04-01T00:48:09.170Z,99.15
2017-04-01T00:48:23.262Z,99.15
2017-04-01T00:48:37.444Z,99.05
2017-04-01T00:48:51.601Z,99.05
2017-04-01T00:49:05.927Z,99.24
2017-04-01T00:49:20.412Z,99.15
2017-04-01T00:49:34.504Z,99.15
2017-04-01T00:50:00.199Z,99.24
2017-04-01T00:50:14.407Z,99.05
2017-04-01T00:50:33.915Z,99.24
2017-04-01T00:50:48.110Z,98.96
2017-04-01T00:51:02.296Z,99.15
2017-04-01T00:51:16.467Z,99.15
2017-04-01T00:51:30.691Z,99.15
2017-04-01T00:51:44.896Z,99.15
2017-04-01T00:51:59.291Z,98.96
2017-04-01T00:52:13.456Z,99.15
2017-04-01T00:52:27.672Z,99.24
2017-04-01T00:52:41.835Z,99.24
2017-04-01T00:52:55.965Z,98.86
2017-04-01T00:53:10.108Z,99.15
2017-04-01T00:53:24.263Z,98.86
2017-04-01T00:53:38.513Z,99.15
2017-04-01T00:53:52.665Z,99.15
2017-04-01T00:54:06.844Z,99.63
2017-04-01T00:54:21.005Z,99.34
2017-04-01T00:54:35.180Z,99.53
2017-04-01T00:54:49.637Z,99.34
2017-04-01T00:55:03.870Z,99.34
2017-04-01T00:55:18.052Z,98.96
2017-04-01T00:55:33.348Z,99.53
2017-04-01T00:55:47.564Z,99.91
2017-04-01T00:56:01.777Z,99.43
2017-04-01T00:56:16.407Z,99.05
2017-04-01T00:56:30.601Z,99.15
2017-04-01T00:56:44.808Z,99.24
2017-04-01T00:56:59.006Z,99.34
2017-04-01T00:57:13.288Z,99.05
2017-04-01T00:57:27.464Z,99.53
2017-04-01T00:57:41.682Z,99.15
2017-04-01T00:57:55.860Z,98.96
2017-04-01T00:58:10.003Z,99.24
2017-04-01T00:58:24.124Z,99.53
2017-04-01T00:58:38.323Z,99.53
2017-04-01T00:58:52.466Z,99.34
2017-04-01T00:59:06.663Z,99.53
2017-04-01T00:59:20.860Z,99.15
2017-04-01T00:59:35.038Z,99.24
2017-04-01T00:59:49.570Z,99.53
2017-04-01T01:00:03.740Z,99.34
2017-04-01T01:00:18.066Z,99.43
2017-04-01T01:00:32.335Z,99.43
2017-04-01T01:00:46.558Z,99.24
2017-04-01T01:01:00.658Z,99.63
2017-04-01T01:01:14.803Z,99.63
2017-04-01T01:01:29.099Z,99.99
2017-04-01T01:01:43.533Z,99.43
2017-04-01T01:01:57.898Z,99.24
2017-04-01T01:02:12.050Z,99.53
2017-04-01T01:02:26.209Z,99.43
2017-04-01T01:02:40.438Z,99.82
2017-04-01T01:02:54.689Z,99.34
2017-04-01T01:03:08.992Z,99.63
2017-04-01T01:03:23.226Z,99.34
2017-04-01T01:03:37.409Z,99.53
2017-04-01T01:03:51.803Z,99.72
2017-04-01T01:04:06.067Z,99.63
2017-04-01T01:04:20.202Z,99.24
2017-04-01T01:04:34.337Z,99.24
2017-04-01T01:04:51.618Z,99.24
2017-04-01T01:05:06.141Z,99.91
2017-04-01T01:05:20.272Z,99.43
2017-04-01T01:05:34.463Z,99.34
2017-04-01T01:05:48.615Z,99.99
2017-04-01T01:06:02.816Z,99.24
2017-04-01T01:06:18.067Z,99.24
2017-04-01T01:06:32.148Z,99.53
2017-04-01T01:06:50.283Z,99.43
2017-04-01T01:07:06.170Z,99.99
2017-04-01T01:07:35.217Z,99.99
2017-04-01T01:07:50.220Z,99.63
2017-04-01T01:08:04.427Z,99.63
2017-04-01T01:08:18.607Z,99.72
2017-04-01T01:08:32.765Z,99.63
2017-04-01T01:08:47.610Z,99.82
2017-04-01T01:09:05.462Z,99.91
2017-04-01T01:09:20.076Z,99.63
2017-04-01T01:09:43.389Z,99.99
2017-04-01T01:09:57.578Z,99.82
2017-04-01T01:10:15.226Z,99.43
2017-04-01T01:10:34.478Z,99.72
2017-04-01T01:10:48.763Z,99.63
2017-04-01T01:11:02.989Z,99.43
2017-04-01T01:11:24.344Z,99.91
2017-04-01T01:11:45.346Z,99.99
2017-04-01T01:12:06.594Z,99.63
2017-04-01T01:12:33.782Z,99.72
2017-04-01T01:12:50.065Z,99.99
2017-04-01T01:13:44.336Z,99.43
2017-04-01T01:13:58.554Z,99.72
2017-04-01T01:14:16.522Z,99.91
2017-04-01T01:15:23.055Z,99.43
2017-04-01T01:16:08.421Z,99.72
2017-04-01T01:16:39.179Z,99.99
2017-04-01T01:16:54.487Z,99.82
2017-04-01T01:17:40.482Z,99.72
2017-04-01T01:18:43.746Z,99.99
2017-04-01T01:20:10.083Z,99.43
2017-04-01T01:21:02.507Z,99.53
2017-04-01T01:21:47.672Z,99.82
2017-04-01T01:22:09.384Z,99.53
2017-04-01T01:22:54.753Z,99.63
2017-04-01T01:23:37.202Z,99.53
2017-04-01T01:23:51.311Z,99.72
2017-04-01T01:24:14.458Z,99.82
2017-04-01T01:25:30.817Z,99.63
2017-04-01T01:25:45.176Z,99.63
2017-04-01T01:25:59.450Z,99.53
2017-04-01T01:26:18.537Z,99.82
2017-04-01T01:26:34.448Z,99.34
2017-04-01T01:27:27.852Z,99.63
2017-04-01T01:29:43.555Z,99.53
2017-04-01T01:30:03.028Z,99.34
2017-04-01T01:30:17.126Z,99.43
2017-04-01T01:31:40.243Z,99.34
2017-04-01T01:31:55.562Z,99.24
2017-04-01T01:33:42.006Z,99.43
2017-04-01T01:34:24.764Z,99.63
2017-04-01T01:35:41.499Z,99.53
2017-04-01T01:35:56.932Z,99.72
2017-04-01T01:36:11.406Z,99.24
2017-04-01T01:36:27.641Z,99.34
2017-04-01T01:36:42.466Z,98.86
2017-04-01T01:38:00.932Z,99.43
2017-04-01T01:38:16.282Z,99.15
2017-04-01T01:38:34.767Z,99.43
2017-04-01T01:39:11.965Z,99.34
2017-04-01T01:40:27.903Z,99.24
2017-04-01T01:41:18.291Z,99.15
2017-04-01T01:41:34.002Z,99.15
2017-04-01T01:42:17.653Z,99.24
2017-04-01T01:43:02.738Z,99.24
2017-04-01T01:44:35.522Z,99.15
2017-04-01T01:45:20.674Z,99.15
2017-04-01T01:45:34.799Z,98.96
2017-04-01T01:46:15.928Z,98.76
2017-04-01T01:46:30.077Z,98.96
2017-04-01T01:46:44.666Z,99.05
2017-04-01T01:47:06.753Z,99.05
2017-04-01T01:47:27.942Z,99.15
2017-04-01T01:47:42.285Z,99.05
2017-04-01T01:48:41.875Z,99.15
2017-04-01T01:48:58.151Z,98.96
2017-04-01T01:49:12.818Z,98.86
2017-04-01T01:50:08.371Z,99.05
2017-04-01T01:50:27.584Z,99.15
2017-04-01T01:51:04.190Z,99.05
2017-04-01T01:51:43.058Z,99.15
2017-04-01T01:52:07.555Z,99.15
2017-04-01T01:52:22.744Z,99.05
2017-04-01T01:52:36.919Z,99.15
2017-04-01T01:52:51.135Z,99.24
2017-04-01T01:53:05.345Z,99.34
2017-04-01T01:53:53.796Z,99.24
2017-04-01T01:54:58.173Z,99.15
2017-04-01T01:55:16.482Z,99.15
2017-04-01T01:55:31.612Z,99.15
2017-04-01T01:56:16.735Z,99.15
2017-04-01T01:56:30.825Z,99.15
2017-04-01T01:56:45.119Z,98.86
2017-04-01T01:56:59.343Z,99.15
2017-04-01T01:57:13.474Z,98.86
2017-04-01T01:57:27.716Z,98.96
2017-04-01T01:57:42.134Z,98.96
2017-04-01T01:57:56.312Z,99.15
2017-04-01T01:59:18.963Z,99.24
2017-04-01T01:59:36.600Z,99.05
2017-04-01T01:59:50.758Z,99.15
2017-04-01T02:00:05.170Z,99.24
2017-04-01T02:00:24.358Z,98.96
2017-04-01T02:00:38.443Z,99.05
2017-04-01T02:00:57.625Z,98.86
2017-04-01T02:01:11.761Z,98.96
2017-04-01T02:01:25.930Z,99.15
2017-04-01T02:01:40.097Z,98.96
2017-04-01T02:01:56.366Z,99.15
2017-04-01T02:02:11.762Z,99.15
2017-04-01T02:02:25.967Z,98.86
2017-04-01T02:02:40.079Z,98.96
2017-04-01T02:02:54.228Z,98.96
2017-04-01T02:03:08.432Z,98.76
2017-04-01T02:03:22.515Z,98.76
2017-04-01T02:03:36.979Z,98.96
2017-04-01T02:03:51.109Z,98.96
2017-04-01T02:04:06.776Z,98.86
2017-04-01T02:04:25.034Z,98.86
2017-04-01T02:04:40.053Z,98.86
2017-04-01T02:05:10.035Z,98.96
2017-04-01T02:05:55.158Z,98.86
2017-04-01T02:06:09.340Z,98.86
2017-04-01T02:07:00.224Z,98.96
2017-04-01T02:07:14.462Z,98.96
2017-04-01T02:07:28.625Z,98.96
2017-04-01T02:08:17.029Z,98.86
2017-04-01T02:08:37.139Z,98.96
2017-04-01T02:08:51.317Z,98.96
2017-04-01T02:09:09.225Z,98.76
2017-04-01T02:09:59.871Z,99.05
2017-04-01T02:10:19.227Z,99.15
2017-04-01T02:10:44.291Z,98.76
2017-04-01T02:11:22.690Z,98.86
2017-04-01T02:11:37.113Z,98.76
2017-04-01T02:11:54.378Z,99.05
2017-04-01T02:12:08.535Z,99.05
2017-04-01T02:12:26.062Z,99.05
2017-04-01T02:12:55.959Z,99.05
2017-04-01T02:13:10.151Z,98.86
2017-04-01T02:13:24.285Z,99.34
2017-04-01T02:13:48.408Z,98.86
2017-04-01T02:14:05.710Z,99.15
2017-04-01T02:14:19.956Z,99.15
2017-04-01T02:14:34.808Z,99.15
2017-04-01T02:14:50.154Z,99.15
2017-04-01T02:15:04.280Z,99.05
2017-04-01T02:15:18.473Z,99.15
2017-04-01T02:15:32.683Z,99.15
2017-04-01T02:15:47.050Z,98.96
2017-04-01T02:16:11.890Z,99.15
2017-04-01T02:16:26.226Z,99.15
2017-04-01T02:16:40.364Z,99.15
2017-04-01T02:16:54.560Z,99.15
2017-04-01T02:17:09.195Z,99.24
2017-04-01T02:17:23.664Z,99.05
2017-04-01T02:17:37.794Z,99.15
2017-04-01T02:17:54.009Z,99.15
2017-04-01T02:18:39.657Z,98.76
2017-04-01T02:18:53.785Z,99.05
2017-04-01T02:19:08.127Z,99.24
2017-04-01T02:19:34.081Z,98.76
2017-04-01T02:19:48.268Z,99.15
2017-04-01T02:20:04.380Z,98.96
2017-04-01T02:20:44.862Z,99.15
2017-04-01T02:21:08.790Z,99.15
2017-04-01T02:21:23.767Z,98.86
2017-04-01T02:21:38.136Z,98.57
2017-04-01T02:21:52.233Z,99.24
2017-04-01T02:22:06.654Z,98.86
2017-04-01T02:22:20.825Z,99.24
2017-04-01T02:22:35.247Z,99.15
2017-04-01T02:22:49.466Z,99.05
2017-04-01T02:23:03.719Z,99.15
2017-04-01T02:23:17.971Z,99.05
2017-04-01T02:23:32.112Z,99.15
2017-04-01T02:23:46.272Z,99.34
2017-04-01T02:24:00.475Z,99.05
2017-04-01T02:24:14.624Z,99.34
2017-04-01T02:24:28.826Z,99.24
2017-04-01T02:24:43.188Z,98.96
2017-04-01T02:25:07.606Z,99.15
2017-04-01T02:25:21.776Z,99.15
2017-04-01T02:26:15.078Z,99.15
2017-04-01T02:26:46.677Z,99.24
2017-04-01T02:27:00.938Z,99.24
2017-04-01T02:27:15.142Z,98.96
2017-04-01T02:27:31.455Z,99.24
2017-04-01T02:27:45.623Z,99.34
2017-04-01T02:27:59.799Z,98.96
2017-04-01T02:28:14.178Z,99.15
2017-04-01T02:28:28.572Z,99.24
2017-04-01T02:28:44.239Z,99.24
2017-04-01T02:28:58.540Z,99.15
2017-04-01T02:29:14.404Z,99.15
2017-04-01T02:29:29.987Z,99.15
2017-04-01T02:29:44.157Z,99.24
2017-04-01T02:29:58.326Z,99.05
2017-04-01T02:30:12.852Z,99.24
2017-04-01T02:30:27.077Z,99.05
2017-04-01T02:30:44.720Z,98.86
2017-04-01T02:30:58.937Z,98.86
2017-04-01T02:31:13.809Z,99.34
2017-04-01T02:31:28.097Z,99.34
2017-04-01T02:31:44.290Z,99.15
2017-04-01T02:31:58.554Z,99.05
2017-04-01T02:32:14.938Z,99.15
2017-04-01T02:32:32.124Z,99.24
2017-04-01T02:32:46.303Z,99.05
2017-04-01T02:33:03.558Z,99.34
2017-04-01T02:33:36.991Z,99.15
2017-04-01T02:33:51.928Z,98.86
2017-04-01T02:34:06.039Z,99.05
2017-04-01T02:34:20.269Z,98.96
2017-04-01T02:34:34.450Z,98.96
2017-04-01T02:35:01.794Z,99.15
2017-04-01T02:35:36.913Z,98.86
2017-04-01T02:35:51.151Z,99.24
2017-04-01T02:36:05.357Z,98.96
2017-04-01T02:36:19.603Z,99.05
2017-04-01T02:36:37.636Z,98.86
2017-04-01T02:36:53.244Z,99.05
2017-04-01T02:37:07.532Z,99.05
2017-04-01T02:37:21.932Z,99.15
2017-04-01T02:37:37.332Z,99.05
2017-04-01T02:37:51.458Z,99.34
2017-04-01T02:38:05.651Z,99.43
2017-04-01T02:38:19.920Z,98.96
2017-04-01T02:38:34.753Z,99.34
2017-04-01T02:38:49.218Z,99.24
2017-04-01T02:39:03.452Z,99.34
2017-04-01T02:39:17.573Z,99.34
2017-04-01T02:39:31.757Z,99.24
2017-04-01T02:39:45.912Z,99.63
2017-04-01T02:40:00.721Z,99.34
2017-04-01T02:40:14.920Z,99.43
2017-04-01T02:40:29.316Z,99.34
2017-04-01T02:40:43.472Z,99.53
2017-04-01T02:40:57.958Z,99.63
2017-04-01T02:41:13.288Z,99.19
2017-04-01T02:41:27.473Z,99.38
2017-04-01T02:41:42.324Z,99.19
2017-04-01T02:42:52.835Z,99.29
2017-04-01T02:43:08.251Z,99.77
2017-04-01T02:43:22.466Z,99.38
2017-04-01T02:43:46.946Z,99.67
2017-04-01T02:44:01.398Z,99.48
2017-04-01T02:44:22.496Z,99.19
2017-04-01T02:44:36.818Z,99.67
2017-04-01T02:44:51.015Z,99.87
2017-04-01T02:45:05.999Z,99.67
2017-04-01T02:45:21.648Z,99.91
2017-04-01T02:45:36.243Z,99.29
2017-04-01T02:45:50.392Z,99.48
2017-04-01T02:46:10.790Z,99.63
2017-04-01T02:46:25.012Z,99.63
2017-04-01T02:46:39.194Z,99.53
2017-04-01T02:46:53.309Z,99.48
2017-04-01T02:47:08.650Z,99.72
2017-04-01T02:47:23.768Z,99.72
2017-04-01T02:47:37.919Z,99.43
2017-04-01T02:47:52.064Z,99.34
2017-04-01T02:48:07.726Z,99.24
2017-04-01T02:48:22.725Z,98.86
2017-04-01T02:48:37.539Z,99.43
2017-04-01T02:48:52.458Z,99.34
2017-04-01T02:49:07.670Z,99.24
2017-04-01T02:49:23.807Z,99.05
2017-04-01T02:49:37.949Z,98.96
2017-04-01T02:49:54.574Z,98.96
2017-04-01T02:50:10.162Z,98.96
2017-04-01T02:50:24.379Z,98.86
2017-04-01T02:50:38.640Z,99.05
2017-04-01T02:50:58.662Z,98.96
2017-04-01T02:51:12.857Z,99.15
2017-04-01T02:51:27.323Z,99.05
2017-04-01T02:51:42.533Z,98.96
2017-04-01T02:51:56.713Z,99.05
2017-04-01T02:52:10.933Z,99.15
2017-04-01T02:52:25.157Z,99.05
2017-04-01T02:52:39.366Z,99.05
2017-04-01T02:52:54.567Z,99.05
2017-04-01T02:53:09.048Z,98.71
2017-04-01T02:53:23.167Z,98.96
2017-04-01T02:53:37.357Z,99.05
2017-04-01T02:53:51.818Z,99.05
2017-04-01T02:54:05.955Z,99.34
2017-04-01T02:54:20.178Z,99.34
2017-04-01T02:54:34.964Z,99.15
2017-04-01T02:54:49.129Z,98.86
2017-04-01T02:55:04.286Z,98.96
2017-04-01T02:55:18.490Z,99.24
2017-04-01T02:55:32.754Z,99.05
2017-04-01T02:55:46.896Z,99.05
2017-04-01T02:56:01.344Z,99.34
2017-04-01T02:56:19.349Z,99.34
2017-04-01T02:56:34.207Z,99.15
2017-04-01T02:56:48.364Z,99.15
2017-04-01T02:57:02.594Z,99.34
2017-04-01T02:57:16.867Z,99.34
2017-04-01T02:57:31.132Z,99.24
2017-04-01T02:57:45.317Z,99.24
2017-04-01T02:58:00.249Z,99.34
2017-04-01T02:58:14.518Z,99.24
2017-04-01T02:58:28.623Z,99.24
2017-04-01T02:58:42.784Z,99.34
2017-04-01T02:58:56.907Z,99.05
2017-04-01T02:59:11.097Z,99.34
2017-04-01T02:59:26.716Z,98.86
2017-04-01T02:59:40.820Z,98.86
2017-04-01T02:59:54.987Z,99.19
2017-04-01T03:00:09.124Z,99.24
2017-04-01T03:00:23.297Z,99.24
2017-04-01T03:00:37.490Z,99.24
2017-04-01T03:00:51.692Z,99.24
2017-04-01T03:01:05.839Z,99.29
2017-04-01T03:01:19.981Z,98.91
2017-04-01T03:01:34.090Z,98.62
2017-04-01T03:01:48.231Z,98.71
2017-04-01T03:02:02.367Z,99.24
2017-04-01T03:02:16.531Z,99.29
2017-04-01T03:02:30.682Z,99.77
2017-04-01T03:02:44.822Z,99.77
2017-04-01T03:02:58.930Z,99.77
2017-04-01T03:03:13.031Z,99.87
2017-04-01T03:03:27.175Z,99.48
2017-04-01T03:03:41.333Z,99.29
2017-04-01T03:03:55.536Z,99.1
2017-04-01T03:04:09.648Z,99.19
2017-04-01T03:04:23.801Z,99
2017-04-01T03:04:37.946Z,99.19
2017-04-01T03:04:52.091Z,99.1
2017-04-01T03:05:06.289Z,99.38
2017-04-01T03:05:20.411Z,99.29
2017-04-01T03:05:34.534Z,98.91
2017-04-01T03:05:48.656Z,99.19
2017-04-01T03:06:02.820Z,99.19
2017-04-01T03:06:16.958Z,99.29
2017-04-01T03:06:31.121Z,99.1
2017-04-01T03:06:45.201Z,99.29
2017-04-01T03:06:59.285Z,99.77
2017-04-01T03:07:13.406Z,99.48
2017-04-01T03:07:27.587Z,99.19
2017-04-01T03:07:41.796Z,99.19
2017-04-01T03:07:56.168Z,99.29
2017-04-01T03:08:10.352Z,99
2017-04-01T03:08:24.497Z,98.91
2017-04-01T03:08:38.626Z,99.1
2017-04-01T03:08:52.752Z,99.19
2017-04-01T03:09:06.984Z,99.19
2017-04-01T03:09:21.107Z,99.29
2017-04-01T03:09:35.223Z,99.67
2017-04-01T03:09:49.347Z,99.29
2017-04-01T03:10:03.492Z,98.91
2017-04-01T03:10:17.639Z,98.91
2017-04-01T03:10:32.085Z,99.19
2017-04-01T03:10:46.333Z,99.19
2017-04-01T03:11:00.492Z,99.19
2017-04-01T03:11:14.663Z,99.38
2017-04-01T03:11:28.811Z,99.38
2017-04-01T03:11:43.004Z,99.29
2017-04-01T03:11:57.100Z,99.29
2017-04-01T03:12:11.239Z,99.1
2017-04-01T03:12:25.353Z,99.77
2017-04-01T03:12:39.491Z,99.29
2017-04-01T03:12:53.645Z,99.77
2017-04-01T03:13:07.761Z,99.58
2017-04-01T03:13:21.913Z,99.58
2017-04-01T03:13:36.116Z,99.58
2017-04-01T03:13:50.256Z,99.38
2017-04-01T03:14:04.424Z,99
2017-04-01T03:14:18.559Z,99.1
2017-04-01T03:14:32.692Z,99.48
2017-04-01T03:14:46.844Z,99.48
2017-04-01T03:15:00.966Z,99.58
2017-04-01T03:15:15.970Z,99.58
2017-04-01T03:15:30.060Z,99.58
2017-04-01T03:15:44.380Z,99.29
2017-04-01T03:15:58.540Z,99.77
2017-04-01T03:16:12.686Z,99.1
2017-04-01T03:16:26.894Z,99.29
2017-04-01T03:16:41.305Z,99.38
2017-04-01T03:17:00.586Z,99.67
2017-04-01T03:17:14.885Z,99.1
2017-04-01T03:17:29.117Z,99.38
2017-04-01T03:17:43.288Z,99.77
2017-04-01T03:17:57.597Z,99.77
2017-04-01T03:18:11.819Z,99.1
2017-04-01T03:18:25.972Z,99.1
2017-04-01T03:18:40.851Z,99.19
2017-04-01T03:18:56.850Z,99.58
2017-04-01T03:19:11.226Z,99.1
2017-04-01T03:19:25.382Z,99.19
2017-04-01T03:19:39.569Z,99.1
2017-04-01T03:19:53.778Z,99
2017-04-01T03:20:07.963Z,99.1
2017-04-01T03:20:22.092Z,99.1
2017-04-01T03:21:04.417Z,99.29
2017-04-01T03:21:18.657Z,98.81
2017-04-01T03:21:32.836Z,99.19
2017-04-01T03:21:47.035Z,99.1
2017-04-01T03:22:01.393Z,98.71
2017-04-01T03:22:16.228Z,99
2017-04-01T03:22:30.361Z,98.91
2017-04-01T03:22:44.865Z,99.1
2017-04-01T03:22:59.247Z,99
2017-04-01T03:23:13.382Z,98.81
2017-04-01T03:23:27.557Z,98.91
2017-04-01T03:23:41.803Z,98.91
2017-04-01T03:23:55.882Z,98.91
2017-04-01T03:24:09.984Z,98.62
2017-04-01T03:24:24.131Z,99
2017-04-01T03:24:38.300Z,98.71
2017-04-01T03:24:52.426Z,98.71
2017-04-01T03:25:06.626Z,98.91
2017-04-01T03:25:20.678Z,99
2017-04-01T03:25:34.798Z,98.91
2017-04-01T03:25:49.256Z,99
2017-04-01T03:26:03.588Z,98.91
2017-04-01T03:26:17.901Z,99.1
2017-04-01T03:26:32.107Z,99
2017-04-01T03:26:46.378Z,99.1
2017-04-01T03:27:00.594Z,99
2017-04-01T03:27:14.856Z,99.1
2017-04-01T03:27:29.024Z,99.1
2017-04-01T03:27:43.336Z,99.1
2017-04-01T03:27:57.605Z,99.1
2017-04-01T03:28:11.839Z,99
2017-04-01T03:28:26.261Z,99
2017-04-01T03:28:40.507Z,99.1
2017-04-01T03:28:55.071Z,99.1
2017-04-01T03:29:09.307Z,99.19
2017-04-01T03:29:23.639Z,99.1
2017-04-01T03:29:37.928Z,98.81
2017-04-01T03:29:52.092Z,99.1
2017-04-01T03:30:06.239Z,99.1
2017-04-01T03:30:20.568Z,98.62
2017-04-01T03:30:34.853Z,98.52
2017-04-01T03:30:49.171Z,98.52
2017-04-01T03:31:03.503Z,99
2017-04-01T03:31:17.743Z,98.71
2017-04-01T03:31:32.021Z,98.62
2017-04-01T03:31:46.185Z,98.52
2017-04-01T03:32:00.448Z,98.71
2017-04-01T03:32:14.726Z,98.62
2017-04-01T03:32:29.001Z,98.52
2017-04-01T03:32:43.263Z,98.81
2017-04-01T03:32:57.417Z,98.71
2017-04-01T03:33:11.702Z,98.71
2017-04-01T03:33:26.104Z,98.62
2017-04-01T03:33:40.425Z,98.33
2017-04-01T03:33:54.745Z,98.62
2017-04-01T03:34:08.912Z,98.62
2017-04-01T03:34:23.150Z,98.43
2017-04-01T03:34:37.470Z,98.52
2017-04-01T03:34:51.687Z,98.33
2017-04-01T03:35:05.972Z,98.52
2017-04-01T03:35:20.304Z,98.81
2017-04-01T03:35:34.523Z,98.62
2017-04-01T03:35:48.837Z,98.81
2017-04-01T03:36:03.270Z,98.52
2017-04-01T03:36:17.506Z,98.43
2017-04-01T03:36:32.045Z,98.14
2017-04-01T03:36:46.165Z,98.62
2017-04-01T03:37:00.568Z,98.81
2017-04-01T03:37:14.841Z,98.71
2017-04-01T03:37:29.103Z,98.62
2017-04-01T03:37:43.371Z,98.62
2017-04-01T03:37:57.592Z,98.24
2017-04-01T03:38:12.098Z,98.24
2017-04-01T03:38:26.409Z,98.71
2017-04-01T03:38:40.750Z,99
2017-04-01T03:38:54.979Z,98.43
2017-04-01T03:39:09.261Z,98.43
2017-04-01T03:39:23.391Z,98.24
2017-04-01T03:39:37.757Z,98.52
2017-04-01T03:39:51.971Z,98.33
2017-04-01T03:40:06.114Z,98.33
2017-04-01T03:40:20.379Z,98.24
2017-04-01T03:40:34.795Z,98.33
2017-04-01T03:40:48.929Z,98.52
2017-04-01T03:41:03.195Z,98.43
2017-04-01T03:41:17.470Z,98.52
2017-04-01T03:41:31.802Z,98.43
2017-04-01T03:41:46.077Z,97.85
2017-04-01T03:42:00.254Z,97.95
2017-04-01T03:42:14.381Z,98.33
2017-04-01T03:42:28.557Z,98.33
2017-04-01T03:42:42.795Z,98.14
2017-04-01T03:42:57.030Z,97.85
2017-04-01T03:43:11.304Z,98.14
2017-04-01T03:43:25.462Z,98.14
2017-04-01T03:43:39.723Z,98.43
2017-04-01T03:43:53.917Z,98.14
2017-04-01T03:44:08.278Z,98.24
2017-04-01T03:44:22.539Z,98.24
2017-04-01T03:44:36.923Z,98.24